sensor_id;sensor_type;location;lat;lon;timestamp;pressure;altitude;pressure_sealevel;temperature;humidity
25638;BME280;13496;51.040;13.680;2023-03-03T00:03:00;100301.25;;;16.78;53.43
25638;BME280;13496;51.040;13.680;2023-03-03T00:08:03;100316.28;;;16.76;53.44
25638;BME280;13496;51.040;13.680;2023-03-03T00:13:15;100312.19;;;16.73;53.38
25638;BME280;13496;51.040;13.680;2023-03-03T00:18:34;100311.22;;;16.74;53.19
25638;BME280;13496;51.040;13.680;2023-03-03T00:23:37;100304.63;;;16.70;53.45
25638;BME280;13496;51.040;13.680;2023-03-03T00:28:47;100308.25;;;16.69;53.25
25638;BME280;13496;51.040;13.680;2023-03-03T00:33:52;100312.50;;;16.70;53.13
25638;BME280;13496;51.040;13.680;2023-03-03T00:44:46;100325.91;;;16.67;53.33
25638;BME280;13496;51.040;13.680;2023-03-03T00:49:48;100317.06;;;16.68;53.23
25638;BME280;13496;51.040;13.680;2023-03-03T00:54:50;100323.47;;;16.65;53.40
25638;BME280;13496;51.040;13.680;2023-03-03T00:59:51;100326.91;;;16.66;53.17
25638;BME280;13496;51.040;13.680;2023-03-03T01:04:54;100327.22;;;16.63;53.33
25638;BME280;13496;51.040;13.680;2023-03-03T01:09:58;100327.53;;;16.68;53.26
25638;BME280;13496;51.040;13.680;2023-03-03T01:15:01;100324.59;;;16.63;53.11
25638;BME280;13496;51.040;13.680;2023-03-03T01:20:03;100334.09;;;16.64;53.22
25638;BME280;13496;51.040;13.680;2023-03-03T01:25:06;100334.59;;;16.59;53.07
25638;BME280;13496;51.040;13.680;2023-03-03T01:30:08;100331.16;;;16.59;53.06
25638;BME280;13496;51.040;13.680;2023-03-03T01:35:11;100337.19;;;16.59;53.04
25638;BME280;13496;51.040;13.680;2023-03-03T01:40:19;100333.09;;;16.57;53.14
25638;BME280;13496;51.040;13.680;2023-03-03T01:50:51;100331.28;;;16.57;53.05
25638;BME280;13496;51.040;13.680;2023-03-03T01:55:54;100323.59;;;16.56;53.09
25638;BME280;13496;51.040;13.680;2023-03-03T02:01:00;100318.38;;;16.56;53.15
25638;BME280;13496;51.040;13.680;2023-03-03T02:06:06;100316.06;;;16.53;52.95
25638;BME280;13496;51.040;13.680;2023-03-03T02:11:09;100310.81;;;16.53;53.21
25638;BME280;13496;51.040;13.680;2023-03-03T02:16:11;100307.38;;;16.52;52.96
25638;BME280;13496;51.040;13.680;2023-03-03T02:21:15;100316.38;;;16.50;53.06
25638;BME280;13496;51.040;13.680;2023-03-03T02:26:29;100313.75;;;16.50;53.04
25638;BME280;13496;51.040;13.680;2023-03-03T02:31:37;100316.38;;;16.50;52.97
25638;BME280;13496;51.040;13.680;2023-03-03T02:36:39;100311.31;;;16.48;53.04
25638;BME280;13496;51.040;13.680;2023-03-03T02:47:01;100314.09;;;16.47;53.13
25638;BME280;13496;51.040;13.680;2023-03-03T02:52:05;100316.22;;;16.43;52.92
25638;BME280;13496;51.040;13.680;2023-03-03T02:57:08;100311.63;;;16.45;53.07
25638;BME280;13496;51.040;13.680;2023-03-03T03:02:10;100312.75;;;16.42;53.06
25638;BME280;13496;51.040;13.680;2023-03-03T03:07:12;100321.59;;;16.41;53.03
25638;BME280;13496;51.040;13.680;2023-03-03T03:12:14;100327.81;;;16.40;53.08
25638;BME280;13496;51.040;13.680;2023-03-03T03:17:16;100327.00;;;16.40;52.78
25638;BME280;13496;51.040;13.680;2023-03-03T03:22:18;100328.81;;;16.39;52.88
25638;BME280;13496;51.040;13.680;2023-03-03T03:27:20;100332.38;;;16.38;53.10
25638;BME280;13496;51.040;13.680;2023-03-03T03:32:24;100338.63;;;16.37;53.12
25638;BME280;13496;51.040;13.680;2023-03-03T03:37:26;100327.31;;;16.37;52.85
25638;BME280;13496;51.040;13.680;2023-03-03T03:42:28;100321.28;;;16.36;52.99
25638;BME280;13496;51.040;13.680;2023-03-03T03:47:31;100310.94;;;16.35;52.83
25638;BME280;13496;51.040;13.680;2023-03-03T03:52:33;100312.91;;;16.33;52.88
25638;BME280;13496;51.040;13.680;2023-03-03T03:57:36;100334.69;;;16.33;53.16
25638;BME280;13496;51.040;13.680;2023-03-03T04:02:38;100338.28;;;16.32;52.88
25638;BME280;13496;51.040;13.680;2023-03-03T04:07:39;100339.09;;;16.33;52.84
25638;BME280;13496;51.040;13.680;2023-03-03T04:12:42;100344.16;;;16.34;52.85
25638;BME280;13496;51.040;13.680;2023-03-03T04:17:47;100356.75;;;16.31;52.93
25638;BME280;13496;51.040;13.680;2023-03-03T04:22:50;100355.94;;;16.30;52.98
25638;BME280;13496;51.040;13.680;2023-03-03T04:27:51;100350.88;;;16.29;52.79
25638;BME280;13496;51.040;13.680;2023-03-03T04:32:55;100364.78;;;16.29;52.70
25638;BME280;13496;51.040;13.680;2023-03-03T04:38:00;100369.19;;;16.29;52.74
25638;BME280;13496;51.040;13.680;2023-03-03T04:43:02;100362.47;;;16.26;52.73
25638;BME280;13496;51.040;13.680;2023-03-03T04:48:05;100372.63;;;16.29;52.68
25638;BME280;13496;51.040;13.680;2023-03-03T04:53:08;100370.31;;;16.26;52.82
25638;BME280;13496;51.040;13.680;2023-03-03T04:58:10;100367.06;;;16.24;52.82
25638;BME280;13496;51.040;13.680;2023-03-03T05:03:13;100368.00;;;16.23;52.95
25638;BME280;13496;51.040;13.680;2023-03-03T05:08:16;100369.81;;;16.23;52.84
25638;BME280;13496;51.040;13.680;2023-03-03T05:13:18;100378.34;;;16.25;52.63
25638;BME280;13496;51.040;13.680;2023-03-03T05:18:21;100378.66;;;16.21;52.66
25638;BME280;13496;51.040;13.680;2023-03-03T05:23:23;100371.63;;;16.22;53.14
25638;BME280;13496;51.040;13.680;2023-03-03T05:28:25;100355.91;;;16.22;53.05
25638;BME280;13496;51.040;13.680;2023-03-03T05:33:26;100361.31;;;16.20;53.26
25638;BME280;13496;51.040;13.680;2023-03-03T05:38:28;100371.44;;;16.24;53.32
25638;BME280;13496;51.040;13.680;2023-03-03T05:43:30;100363.75;;;16.22;53.38
25638;BME280;13496;51.040;13.680;2023-03-03T05:48:31;100376.84;;;16.22;53.35
25638;BME280;13496;51.040;13.680;2023-03-03T05:53:33;100380.28;;;16.23;53.47
25638;BME280;13496;51.040;13.680;2023-03-03T05:58:35;100370.13;;;16.19;53.47
25638;BME280;13496;51.040;13.680;2023-03-03T06:03:36;100375.06;;;16.23;53.35
25638;BME280;13496;51.040;13.680;2023-03-03T06:08:38;100376.19;;;16.20;53.54
25638;BME280;13496;51.040;13.680;2023-03-03T06:13:40;100371.94;;;16.19;53.66
25638;BME280;13496;51.040;13.680;2023-03-03T06:18:43;100358.19;;;16.17;53.35
25638;BME280;13496;51.040;13.680;2023-03-03T06:23:44;100366.84;;;16.17;53.60
25638;BME280;13496;51.040;13.680;2023-03-03T06:28:46;100372.09;;;16.17;53.40
25638;BME280;13496;51.040;13.680;2023-03-03T06:33:48;100374.53;;;16.19;53.63
25638;BME280;13496;51.040;13.680;2023-03-03T06:38:50;100385.69;;;16.21;53.71
25638;BME280;13496;51.040;13.680;2023-03-03T06:43:52;100404.97;;;16.20;53.45
25638;BME280;13496;51.040;13.680;2023-03-03T06:48:54;100406.78;;;16.19;53.45
25638;BME280;13496;51.040;13.680;2023-03-03T06:53:57;100409.25;;;16.21;53.63
25638;BME280;13496;51.040;13.680;2023-03-03T06:58:59;100407.75;;;16.18;53.34
25638;BME280;13496;51.040;13.680;2023-03-03T07:04:14;100407.59;;;16.20;53.40
25638;BME280;13496;51.040;13.680;2023-03-03T07:09:23;100426.91;;;16.19;53.38
25638;BME280;13496;51.040;13.680;2023-03-03T07:14:25;100432.97;;;16.19;53.45
25638;BME280;13496;51.040;13.680;2023-03-03T07:19:34;100423.31;;;16.20;53.40
25638;BME280;13496;51.040;13.680;2023-03-03T07:24:36;100425.78;;;16.21;53.39
25638;BME280;13496;51.040;13.680;2023-03-03T07:29:38;100426.75;;;16.20;53.42
25638;BME280;13496;51.040;13.680;2023-03-03T07:34:48;100432.81;;;16.21;53.29
25638;BME280;13496;51.040;13.680;2023-03-03T07:39:51;100442.59;;;16.19;53.35
25638;BME280;13496;51.040;13.680;2023-03-03T07:44:55;100457.19;;;16.21;53.17
25638;BME280;13496;51.040;13.680;2023-03-03T07:50:17;100457.03;;;16.23;53.25
25638;BME280;13496;51.040;13.680;2023-03-03T08:05:46;100447.53;;;16.22;53.11
25638;BME280;13496;51.040;13.680;2023-03-03T08:10:53;100451.66;;;16.25;53.09
25638;BME280;13496;51.040;13.680;2023-03-03T08:16:26;100448.06;;;16.26;52.93
25638;BME280;13496;51.040;13.680;2023-03-03T08:21:32;100448.88;;;16.26;52.86
25638;BME280;13496;51.040;13.680;2023-03-03T08:26:34;100444.63;;;16.25;52.98
25638;BME280;13496;51.040;13.680;2023-03-03T08:31:36;100450.38;;;16.29;52.90
25638;BME280;13496;51.040;13.680;2023-03-03T08:36:38;100451.19;;;16.29;52.88
25638;BME280;13496;51.040;13.680;2023-03-03T08:41:40;100452.81;;;16.30;52.84
25638;BME280;13496;51.040;13.680;2023-03-03T08:46:44;100455.59;;;16.29;52.85
25638;BME280;13496;51.040;13.680;2023-03-03T08:51:46;100467.25;;;16.34;52.78
25638;BME280;13496;51.040;13.680;2023-03-03T08:56:47;100464.94;;;16.31;52.61
25638;BME280;13496;51.040;13.680;2023-03-03T09:01:49;100462.97;;;16.33;52.69
25638;BME280;13496;51.040;13.680;2023-03-03T09:06:51;100463.16;;;16.32;52.81
25638;BME280;13496;51.040;13.680;2023-03-03T09:11:57;100467.53;;;16.31;52.64
25638;BME280;13496;51.040;13.680;2023-03-03T09:16:59;100468.69;;;16.29;52.71
25638;BME280;13496;51.040;13.680;2023-03-03T09:22:21;100478.88;;;16.32;52.61
25638;BME280;13496;51.040;13.680;2023-03-03T09:27:28;100485.06;;;16.31;52.57
25638;BME280;13496;51.040;13.680;2023-03-03T09:32:35;100492.91;;;16.31;52.55
25638;BME280;13496;51.040;13.680;2023-03-03T09:37:39;100495.41;;;16.32;52.31
25638;BME280;13496;51.040;13.680;2023-03-03T09:47:46;100498.97;;;16.31;52.36
25638;BME280;13496;51.040;13.680;2023-03-03T10:08:35;100497.34;;;16.30;52.56
25638;BME280;13496;51.040;13.680;2023-03-03T10:13:57;100507.00;;;16.30;52.40
25638;BME280;13496;51.040;13.680;2023-03-03T10:24:30;100522.22;;;16.34;52.23
25638;BME280;13496;51.040;13.680;2023-03-03T10:30:19;100526.81;;;16.32;52.32
25638;BME280;13496;51.040;13.680;2023-03-03T10:35:51;100518.78;;;16.34;52.25
25638;BME280;13496;51.040;13.680;2023-03-03T10:41:16;100526.50;;;16.35;52.13
25638;BME280;13496;51.040;13.680;2023-03-03T10:46:51;100521.13;;;16.37;52.10
25638;BME280;13496;51.040;13.680;2023-03-03T10:52:05;100516.03;;;16.35;52.01
25638;BME280;13496;51.040;13.680;2023-03-03T10:57:16;100521.28;;;16.35;52.27
25638;BME280;13496;51.040;13.680;2023-03-03T11:02:34;100516.84;;;16.36;52.07
25638;BME280;13496;51.040;13.680;2023-03-03T11:07:43;100514.38;;;16.34;52.07
25638;BME280;13496;51.040;13.680;2023-03-03T11:12:55;100522.91;;;16.36;52.09
25638;BME280;13496;51.040;13.680;2023-03-03T11:23:51;100509.44;;;16.31;52.33
25638;BME280;13496;51.040;13.680;2023-03-03T11:29:23;100509.13;;;16.34;52.05
25638;BME280;13496;51.040;13.680;2023-03-03T11:34:48;100507.50;;;16.33;52.13
25638;BME280;13496;51.040;13.680;2023-03-03T11:39:56;100503.09;;;16.34;52.07
25638;BME280;13496;51.040;13.680;2023-03-03T11:45:16;100490.00;;;16.34;52.07
25638;BME280;13496;51.040;13.680;2023-03-03T11:50:38;100498.66;;;16.34;52.07
25638;BME280;13496;51.040;13.680;2023-03-03T11:55:48;100496.22;;;16.33;52.26
25638;BME280;13496;51.040;13.680;2023-03-03T12:00:57;100493.28;;;16.36;52.09
25638;BME280;13496;51.040;13.680;2023-03-03T12:06:11;100503.91;;;16.34;52.08
25638;BME280;13496;51.040;13.680;2023-03-03T12:11:52;100490.81;;;16.34;52.04
25638;BME280;13496;51.040;13.680;2023-03-03T12:16:58;100486.09;;;16.38;51.98
25638;BME280;13496;51.040;13.680;2023-03-03T12:22:18;100491.50;;;16.36;51.86
25638;BME280;13496;51.040;13.680;2023-03-03T12:33:14;100471.88;;;16.40;51.74
25638;BME280;13496;51.040;13.680;2023-03-03T12:44:03;100460.38;;;16.33;51.60
25638;BME280;13496;51.040;13.680;2023-03-03T12:49:07;100456.16;;;16.40;51.69
25638;BME280;13496;51.040;13.680;2023-03-03T12:54:27;100462.88;;;16.43;51.53
25638;BME280;13496;51.040;13.680;2023-03-03T13:04:56;100450.75;;;16.42;51.62
25638;BME280;13496;51.040;13.680;2023-03-03T13:20:44;100451.91;;;16.39;51.24
25638;BME280;13496;51.040;13.680;2023-03-03T13:25:59;100455.34;;;16.40;51.35
25638;BME280;13496;51.040;13.680;2023-03-03T13:31:11;100442.38;;;16.38;51.59
25638;BME280;13496;51.040;13.680;2023-03-03T13:36:15;100442.38;;;16.38;51.79
25638;BME280;13496;51.040;13.680;2023-03-03T13:41:28;100433.56;;;16.39;51.52
25638;BME280;13496;51.040;13.680;2023-03-03T13:46:42;100433.06;;;16.36;51.78
25638;BME280;13496;51.040;13.680;2023-03-03T13:51:59;100428.78;;;16.35;51.83
25638;BME280;13496;51.040;13.680;2023-03-03T14:07:51;100420.09;;;16.34;51.94
25638;BME280;13496;51.040;13.680;2023-03-03T14:23:26;100411.59;;;16.32;51.73
25638;BME280;13496;51.040;13.680;2023-03-03T14:28:42;100400.13;;;16.33;51.78
25638;BME280;13496;51.040;13.680;2023-03-03T14:33:56;100391.28;;;16.34;51.81
25638;BME280;13496;51.040;13.680;2023-03-03T14:38:59;100389.50;;;16.35;51.69
25638;BME280;13496;51.040;13.680;2023-03-03T14:44:34;100394.59;;;16.36;51.80
25638;BME280;13496;51.040;13.680;2023-03-03T14:49:38;100391.97;;;16.36;51.74
25638;BME280;13496;51.040;13.680;2023-03-03T14:55:08;100396.53;;;16.34;51.54
25638;BME280;13496;51.040;13.680;2023-03-03T15:05:24;100378.38;;;16.33;51.70
25638;BME280;13496;51.040;13.680;2023-03-03T15:10:38;100383.75;;;16.31;51.81
25638;BME280;13496;51.040;13.680;2023-03-03T15:15:59;100382.13;;;16.30;51.81
25638;BME280;13496;51.040;13.680;2023-03-03T15:21:04;100389.00;;;16.31;51.70
25638;BME280;13496;51.040;13.680;2023-03-03T15:26:23;100384.59;;;16.32;51.38
25638;BME280;13496;51.040;13.680;2023-03-03T15:31:38;100384.09;;;16.28;51.67
25638;BME280;13496;51.040;13.680;2023-03-03T15:42:04;100385.72;;;16.29;51.65
25638;BME280;13496;51.040;13.680;2023-03-03T15:52:42;100382.75;;;16.24;51.70
25638;BME280;13496;51.040;13.680;2023-03-03T16:03:43;100383.72;;;16.23;51.78
25638;BME280;13496;51.040;13.680;2023-03-03T16:08:56;100383.88;;;16.21;51.65
25638;BME280;13496;51.040;13.680;2023-03-03T16:14:12;100382.41;;;16.19;51.86
25638;BME280;13496;51.040;13.680;2023-03-03T16:25:12;100381.41;;;16.20;51.62
25638;BME280;13496;51.040;13.680;2023-03-03T16:30:27;100381.75;;;16.17;51.79
25638;BME280;13496;51.040;13.680;2023-03-03T16:35:38;100380.91;;;16.16;51.85
25638;BME280;13496;51.040;13.680;2023-03-03T16:40:53;100393.34;;;16.14;51.91
25638;BME280;13496;51.040;13.680;2023-03-03T16:46:21;100394.47;;;16.12;52.02
25638;BME280;13496;51.040;13.680;2023-03-03T16:51:41;100384.97;;;16.11;51.98
25638;BME280;13496;51.040;13.680;2023-03-03T16:56:58;100387.91;;;16.08;52.14
25638;BME280;13496;51.040;13.680;2023-03-03T17:12:48;100389.03;;;16.05;52.18
25638;BME280;13496;51.040;13.680;2023-03-03T17:17:59;100383.78;;;16.05;52.43
25638;BME280;13496;51.040;13.680;2023-03-03T17:49:44;100404.44;;;16.08;53.04
25638;BME280;13496;51.040;13.680;2023-03-03T18:00:15;100400.34;;;16.06;53.20
25638;BME280;13496;51.040;13.680;2023-03-03T18:21:52;100402.13;;;16.05;53.27
25638;BME280;13496;51.040;13.680;2023-03-03T18:26:55;100396.88;;;16.05;53.26
25638;BME280;13496;51.040;13.680;2023-03-03T18:32:18;100405.59;;;16.06;53.46
25638;BME280;13496;51.040;13.680;2023-03-03T18:37:38;100397.06;;;16.04;53.43
25638;BME280;13496;51.040;13.680;2023-03-03T18:42:43;100404.09;;;16.03;53.62
25638;BME280;13496;51.040;13.680;2023-03-03T18:48:08;100409.16;;;16.05;53.42
25638;BME280;13496;51.040;13.680;2023-03-03T18:53:20;100414.69;;;16.02;53.50
25638;BME280;13496;51.040;13.680;2023-03-03T19:03:32;100403.25;;;16.03;53.65
25638;BME280;13496;51.040;13.680;2023-03-03T19:08:53;100406.53;;;16.05;53.66
25638;BME280;13496;51.040;13.680;2023-03-03T19:14:17;100404.91;;;16.04;53.71
25638;BME280;13496;51.040;13.680;2023-03-03T19:19:31;100405.06;;;16.02;53.59
25638;BME280;13496;51.040;13.680;2023-03-03T19:24:34;100413.75;;;16.03;53.63
25638;BME280;13496;51.040;13.680;2023-03-03T19:40:24;100396.38;;;16.02;53.70
25638;BME280;13496;51.040;13.680;2023-03-03T19:45:44;100403.41;;;16.01;53.68
25638;BME280;13496;51.040;13.680;2023-03-03T19:50:56;100396.38;;;16.02;53.71
25638;BME280;13496;51.040;13.680;2023-03-03T19:56:17;100402.59;;;16.01;53.77
25638;BME280;13496;51.040;13.680;2023-03-03T20:01:26;100404.22;;;16.02;54.10
25638;BME280;13496;51.040;13.680;2023-03-03T20:06:32;100399.84;;;16.02;53.76
25638;BME280;13496;51.040;13.680;2023-03-03T20:11:54;100403.41;;;16.01;54.09
25638;BME280;13496;51.040;13.680;2023-03-03T20:22:39;100400.78;;;16.01;54.09
25638;BME280;13496;51.040;13.680;2023-03-03T20:28:05;100390.50;;;16.00;54.29
25638;BME280;13496;51.040;13.680;2023-03-03T20:33:34;100387.69;;;16.01;54.58
25638;BME280;13496;51.040;13.680;2023-03-03T20:39:28;100386.06;;;16.00;54.76
25638;BME280;13496;51.040;13.680;2023-03-03T20:44:32;100378.03;;;16.02;54.89
25638;BME280;13496;51.040;13.680;2023-03-03T20:50:02;100376.28;;;16.02;54.88
25638;BME280;13496;51.040;13.680;2023-03-03T20:55:32;100378.03;;;16.02;54.87
25638;BME280;13496;51.040;13.680;2023-03-03T21:06:07;100368.56;;;16.01;54.81
25638;BME280;13496;51.040;13.680;2023-03-03T21:11:10;100365.94;;;16.01;54.80
25638;BME280;13496;51.040;13.680;2023-03-03T21:16:29;100365.94;;;16.01;54.81
25638;BME280;13496;51.040;13.680;2023-03-03T21:21:39;100354.34;;;16.03;54.78
25638;BME280;13496;51.040;13.680;2023-03-03T21:26:58;100357.09;;;16.02;54.85
25638;BME280;13496;51.040;13.680;2023-03-03T21:32:02;100342.56;;;15.99;54.82
25638;BME280;13496;51.040;13.680;2023-03-03T21:37:06;100334.53;;;16.01;54.73
25638;BME280;13496;51.040;13.680;2023-03-03T21:42:10;100344.03;;;16.02;54.75
25638;BME280;13496;51.040;13.680;2023-03-03T21:47:14;100344.19;;;16.00;54.64
25638;BME280;13496;51.040;13.680;2023-03-03T21:52:19;100333.72;;;16.00;54.68
25638;BME280;13496;51.040;13.680;2023-03-03T21:57:21;100338.13;;;16.00;54.62
25638;BME280;13496;51.040;13.680;2023-03-03T22:02:22;100336.50;;;15.99;54.54
25638;BME280;13496;51.040;13.680;2023-03-03T22:07:24;100340.59;;;16.01;54.87
25638;BME280;13496;51.040;13.680;2023-03-03T22:12:26;100332.91;;;16.00;54.57
25638;BME280;13496;51.040;13.680;2023-03-03T22:17:27;100338.97;;;16.00;54.71
25638;BME280;13496;51.040;13.680;2023-03-03T22:22:29;100336.50;;;15.99;54.79
25638;BME280;13496;51.040;13.680;2023-03-03T22:27:31;100329.63;;;15.97;54.62
25638;BME280;13496;51.040;13.680;2023-03-03T22:32:32;100317.34;;;15.98;54.58
25638;BME280;13496;51.040;13.680;2023-03-03T22:37:34;100312.97;;;15.99;54.54
25638;BME280;13496;51.040;13.680;2023-03-03T22:42:36;100313.91;;;15.97;54.56
25638;BME280;13496;51.040;13.680;2023-03-03T22:47:37;100313.09;;;15.97;54.71
25638;BME280;13496;51.040;13.680;2023-03-03T22:52:39;100311.47;;;15.96;54.58
25638;BME280;13496;51.040;13.680;2023-03-03T22:57:41;100306.22;;;15.96;54.71
25638;BME280;13496;51.040;13.680;2023-03-03T23:02:42;100294.63;;;15.99;54.40
25638;BME280;13496;51.040;13.680;2023-03-03T23:07:44;100286.41;;;15.93;54.50
25638;BME280;13496;51.040;13.680;2023-03-03T23:12:46;100301.00;;;15.96;54.42
25638;BME280;13496;51.040;13.680;2023-03-03T23:17:47;100282.00;;;15.94;54.53
25638;BME280;13496;51.040;13.680;2023-03-03T23:22:49;100276.13;;;15.92;54.48
25638;BME280;13496;51.040;13.680;2023-03-03T23:27:52;100264.19;;;15.97;54.32
25638;BME280;13496;51.040;13.680;2023-03-03T23:32:53;100262.88;;;15.93;54.47
25638;BME280;13496;51.040;13.680;2023-03-03T23:37:55;100262.22;;;15.91;54.51
25638;BME280;13496;51.040;13.680;2023-03-03T23:42:57;100257.63;;;15.93;54.29
25638;BME280;13496;51.040;13.680;2023-03-03T23:47:58;100262.88;;;15.93;54.38
25638;BME280;13496;51.040;13.680;2023-03-03T23:53:00;100263.84;;;15.92;54.28
25638;BME280;13496;51.040;13.680;2023-03-03T23:58:02;100257.00;;;15.91;54.42
